Hector Moreno

Recruteur - Toluca
20 Janv 2028
Jeudi
Processus

Personnalité

Adaptabilité (8) Ambition (2) Controverse (8) Loyauté (8) Pression (12) Professionnalisme (14) Sportivité (15) Tempérament (16)

Profil

Style d'entraînement Démocratique
Diplôme National B
Détermination 7
Gestion des joueurs 13
Motivation 8
Discipline 9
Satisfaction professionnelle
100%
Fatigue
0%
Rôle Recruteur
Salaire 29.8K p/s
Contrat 14.03.2028

Performance

Comportement Bon
Efficacité de l'entraînement
44%
Développement des joueurs
55%
Prévention des blessures
45%
Mise en place tactique
65%

Événements récents

Négociation de contrat entamée maintenant
En formation continue maintenant
A participé à une réunion de recrutement maintenant
Négociation de contrat entamée maintenant
En formation continue maintenant
En formation continue 7j
Négociation de contrat entamée 7j
En formation continue 7j

Suivi en cours

65
Joueur Club Statut Capacité Confiance Observé Dernière observation Dernier vote
Hiram Mier Cruz Azul Perdu 108 / 117 65% 1 06.01.2028 -
Brian Gutiérrez Guadalajara Actif 131 / 129 40% 1 02.01.2027 -
Félix Lemaréchal Club Brugge Actif 121 / 125 40% 1 02.01.2027 -
Welington Southampton Actif 131 / 119 40% 1 31.12.2026 -
Matteo Dams Club Brugge Actif 133 / 126 40% 1 31.12.2026 -
Robert FC Copenhagen Actif 120 / 126 40% 3 28.12.2026 -
João Virgínia Wolverhampton Actif 120 / 124 40% 2 28.12.2026 -
Nahuel Galardi Maipú Actif 117 / 105 40% 1 28.12.2026 -
Thulani Dala Platinum Stars Actif 96 / 93 40% 1 28.12.2026 -
Shea Charles Southampton Actif 142 / 137 40% 1 27.12.2026 -
Agustín Lastra Estudiantes Actif 110 / 113 40% 3 25.12.2026 -
Nicolás Sumavil Platense Actif 122 / 115 40% 4 24.12.2026 -
Michael Cooper Sheffield United Actif 119 / 124 40% 2 24.12.2026 -
Radek Vítek Middlesbrough Actif 128 / 144 40% 6 23.12.2026 -
Brent Gabriel Zulte Waregem Actif 114 / 114 40% 2 21.12.2026 -
Lander Astiazarán Real Sociedad Actif 114 / 105 40% 2 19.12.2026 -
Giovanni Cantizano Rosario Central Actif 96 / 121 40% 2 19.12.2026 -
Endrick Real Madrid Actif 161 / 153 40% 1 17.12.2026 -
Rocco Vata Watford Actif 117 / 126 40% 1 17.12.2026 -
Felipe Parra Envigado Actif 129 / 115 40% 2 16.12.2026 -
Oscar Schwartau Norwich City Actif 107 / 122 40% 1 16.12.2026 -
Mads Hermansen West Ham United Actif 129 / 146 40% 2 14.12.2026 -
Santiago Silva CFR Cluj Actif 113 / 116 40% 7 11.12.2026 -
Facundo Vila Estudiantes Actif 92 / 95 40% 1 10.12.2026 -
George Wickens Lincoln City Actif 113 / 107 40% 1 10.12.2026 -
Bradley Mabunda SuperSport United Actif 114 / 112 40% 2 09.12.2026 -
Giovanni Baroni Talleres Actif 119 / 123 40% 1 08.12.2026 -
Neco Williams Nottingham Forest Actif 148 / 141 40% 1 07.12.2026 -
Lewis Ferguson Bologna Actif 143 / 151 40% 1 07.12.2026 -
Matheus Gonçalves Al-Ahli Actif 114 / 123 40% 1 06.12.2026 -
Jonás Luna Santa Clara Actif 117 / 121 40% 3 05.12.2026 -
Mauro Silveira Junior Actif 129 / 129 40% 3 05.12.2026 -
Héctor Holguín Veracruz Actif 114 / 112 40% 1 05.12.2026 -
Samuel Lucero Defensa y Justicia Actif 118 / 120 40% 1 03.12.2026 -
Grégoire Coudert Burnley Actif 139 / 136 40% 2 02.12.2026 -
Enzo Vázquez Central Norte Actif 109 / 101 40% 2 28.11.2026 -
Esteban Glellel Quilmes Actif 115 / 112 40% 2 28.11.2026 -
Joaquín Enrico San Telmo Actif 117 / 107 40% 4 27.11.2026 -
Manuel Rios La Equidad Actif 106 / 105 40% 1 25.11.2026 -
Luis Ingolotti Atlético Tucumán Actif 134 / 118 40% 4 24.11.2026 -
Gorka Gorosabel Real Sociedad Actif 99 / 121 40% 2 22.11.2026 -
Patrick Preciado Deportivo Pasto Actif 91 / 109 40% 1 22.11.2026 -
Aníbal Moreno River Plate Actif 137 / 142 40% 1 22.11.2026 -
Francisco Salerno Defensores Unidos Actif 99 / 104 40% 2 15.11.2026 -
Christian Krasnodar Actif 121 / 138 40% 1 15.11.2026 -
Luke McNally Bristol City Actif 131 / 118 40% 1 15.11.2026 -
Jan Virgili Club Brugge Actif 141 / 141 40% 1 11.11.2026 -
Ramón Juárez Club America Actif 125 / 128 40% 1 09.11.2026 -
Florentino Luís Ipswich Town Actif 143 / 140 40% 1 09.11.2026 -
Tomás Ahumada Audax Italiano Actif 109 / 115 40% 2 02.11.2026 -
Ignacio Perruzzi San Lorenzo Actif 119 / 133 40% 3 02.11.2026 -
Cristopher Varela Deportivo La Guaira Actif 130 / 120 40% 2 31.10.2026 -
Roman Celentano FC Cincinnati Actif 131 / 112 40% 1 30.10.2026 -
Santiago Roggero Gimnasia y Esgrima Actif 94 / 111 40% 1 30.10.2026 -
Tomás Durso Atlético Tucumán Actif 105 / 123 40% 1 29.10.2026 -
Federico Varese Racing Actif 111 / 107 40% 2 28.10.2026 -
Tristan Degreef Anderlecht Actif 122 / 132 40% 1 27.10.2026 -
Valentino Acuña Newell's Old Boys Actif 103 / 128 40% 1 16.10.2026 -
Manuel Roffo Cerro Porteno Actif 139 / 127 40% 1 11.10.2026 -
Kazuki Fujita Avispa Fukuoka Actif 112 / 135 40% 1 11.10.2026 -
Lautaro Amadé Defensa y Justicia Actif 104 / 113 40% 1 23.09.2026 -
Franco Carretero Deportivo Lara Actif 91 / 105 40% 2 10.09.2026 -
Francisco Castillo Llaneros Actif 95 / 94 40% 1 10.09.2026 -
Alejandro Alcalá Dila Actif 97 / 82 40% 1 07.09.2026 -
Ángel Sepúlveda Guadalajara Actif 128 / 122 58% 1 31.08.2026 -